Aérodrome :
LOGIN :

S'inscrire | Disclaimer

   EN    FR    IT 

 










Légende :    VFR   VFR Marginal   IFR   IFR Intensif   IFR Très Intensif
Visi : 
Plafond : 
>= 8 km
>= 3000ft
5 à 8 km
1000 à 3000 ft
1500m à 5 km
500 à 1000 ft
800 à 1500m
200 à 500 ft
< 800m
< 200 ft
Symboles :   Orages  Brouillard  Fortes neiges  Fortes précipitations  Vent > 20 kt
SIGMETs :   Divers  Orages  Givrage  Turbulence  Onde Orograph.  Cendres Volcan.







- Altitude de l'aérodrome : 416 ft
- Code IATA : OVD


LEAS - Asturias

DERNIER METAR :
  • 211000Z 07004KT 020V120 CAVOK 24/17 Q1017 NOSIG

METARs EXPIRÉS :
  • 210930Z 08003KT 050V160 CAVOK 23/18 Q1017 NOSIG
  • 210900Z 09003KT 010V150 CAVOK 22/18 Q1017 NOSIG
  • 210830Z VRB02KT CAVOK 20/17 Q1017 NOSIG
  • 210800Z VRB02KT CAVOK 19/17 Q1017 NOSIG
  • 210730Z VRB02KT CAVOK 18/16 Q1017 NOSIG

TAF TAF LEAS
Valide du 21 à 09h jusqu'au 22 à 09h UTC


210800Z 2109/2209 13003KT CAVOK TX26/2115Z TN17/2205Z
BECMG 2109/2112 07010KT
BECMG 2118/2121 VRB03KT
BECMG 2203/2206 29010KT
TEMPO 2203/2209 3000 BR
PROB40
TEMPO 2203/2209 1400 BCFG BKN001
PROB40
TEMPO 2206/2209 0100 FG
Pas de NOTAMs connus pour ce terrain.



MET'MAP, la Météo Aéronautique d'un coup d'oeil ! - Copyright ORBIFLY Décembre 2007 - Disclaimer

ORBIFLY MET'MAP TEAM :

Programmation & Développement : Alexandra Zaïnal
Conception & Développement : Baudouin d'Aumeries
Co-Programmation & Développement : Marc-Olivier Méhu
Soutien technique & logistique : Manuel Goepfert

Contact : metmap@orbifly.com




SOURCES & CREDITS :

   NOAA